This is the latest recevied weather packets stored in our database for station/object E22FEY-1. If no packets are shown the sender has not sent any weather packets the latest 10 day(s).
| Time | Temp. | Humidity | Pressure | Rain* | Wind** | Luminosity | Snow |
|---|---|---|---|---|---|---|---|
| 1777781224 | 38.89° C | 42% | 1009 hPa | - | - | 0 W/m² | - |
| 1777780298 | 40° C | 41% | 1010 hPa | - | - | 0 W/m² | - |
| 1777779374 | 39.44° C | 41% | 1010 hPa | - | - | 0 W/m² | - |
| 1777778450 | 39.44° C | 43% | 1010 hPa | - | - | 0 W/m² | - |
| 1777777525 | 38.89° C | 43% | 1010 hPa | - | - | 0 W/m² | - |
| 1777776601 | 38.89° C | 44% | 1010 hPa | - | - | 0 W/m² | - |
| 1777775676 | 39.44° C | 44% | 1010 hPa | - | - | 0 W/m² | - |
| 1777774752 | 39.44° C | 43% | 1010 hPa | - | - | 0 W/m² | - |
| 1777773827 | 39.44° C | 43% | 1010 hPa | - | - | 0 W/m² | - |
| 1777772902 | 38.89° C | 45% | 1010 hPa | - | - | 0 W/m² | - |
| 1777771978 | 39.44° C | 44% | 1010 hPa | - | - | 0 W/m² | - |
| 1777771053 | 41.11° C | 41% | 1010 hPa | - | - | 0 W/m² | - |
| 1777770129 | 41.11° C | 41% | 1009 hPa | - | - | 0 W/m² | - |
| 1777769203 | 43.89° C | 36% | 1009 hPa | - | - | 0 W/m² | - |
| 1777768279 | 42.22° C | 39% | 1009 hPa | - | - | 0 W/m² | - |
| 1777767354 | 40° C | 44% | 1009 hPa | - | - | 0 W/m² | - |
| 1777766430 | 37.78° C | 49% | 1009 hPa | - | - | 0 W/m² | - |
| 1777765493 | 35° C | 57% | 1009 hPa | - | - | 0 W/m² | - |
| 1777765391 | 35° C | 58% | 1009 hPa | - | - | 0 W/m² | - |
| 1777765315 | 34.44° C | 59% | 1009 hPa | - | - | 0 W/m² | - |
| 1777765244 | 34.44° C | 60% | 1009 hPa | - | - | 0 W/m² | - |
| 1777765172 | 34.44° C | 60% | 1008 hPa | - | - | 0 W/m² | - |
| 1777765101 | 33.89° C | 61% | 1008 hPa | - | - | 0 W/m² | - |
| 1777765027 | 33.89° C | 61% | 1008 hPa | - | - | 0 W/m² | - |
| 1777764955 | 33.33° C | 62% | 1008 hPa | - | - | 0 W/m² | - |
* Rain since midnight (hover to see other rain measurements)
** Current wind speed in m/s (hover to see current wind gust speed)